sensor_id;sensor_type;location;lat;lon;timestamp;P1;durP1;ratioP1;P2;durP2;ratioP2
34019;SDS011;20895;51.034;3.742;2023-12-29T00:01:29;10.30;;;3.83;;
34019;SDS011;20895;51.034;3.742;2023-12-29T00:03:55;12.25;;;11.10;;
34019;SDS011;20895;51.034;3.742;2023-12-29T00:06:20;8.48;;;2.83;;
34019;SDS011;20895;51.034;3.742;2023-12-29T00:08:45;9.15;;;2.45;;
34019;SDS011;20895;51.034;3.742;2023-12-29T00:11:19;14.90;;;3.47;;
34019;SDS011;20895;51.034;3.742;2023-12-29T00:13:44;8.18;;;2.47;;
34019;SDS011;20895;51.034;3.742;2023-12-29T00:16:09;8.32;;;2.67;;
34019;SDS011;20895;51.034;3.742;2023-12-29T00:18:36;13.73;;;2.83;;
34019;SDS011;20895;51.034;3.742;2023-12-29T00:21:02;5.95;;;2.60;;
34019;SDS011;20895;51.034;3.742;2023-12-29T00:23:27;12.35;;;3.72;;
34019;SDS011;20895;51.034;3.742;2023-12-29T00:25:52;10.65;;;2.60;;
34019;SDS011;20895;51.034;3.742;2023-12-29T00:28:17;6.97;;;3.33;;
34019;SDS011;20895;51.034;3.742;2023-12-29T00:30:43;7.38;;;2.25;;
34019;SDS011;20895;51.034;3.742;2023-12-29T00:33:08;10.30;;;3.03;;
34019;SDS011;20895;51.034;3.742;2023-12-29T00:35:36;7.53;;;2.22;;
34019;SDS011;20895;51.034;3.742;2023-12-29T00:38:01;10.68;;;2.35;;
34019;SDS011;20895;51.034;3.742;2023-12-29T00:40:27;9.88;;;3.03;;
34019;SDS011;20895;51.034;3.742;2023-12-29T00:42:52;6.10;;;2.53;;
34019;SDS011;20895;51.034;3.742;2023-12-29T00:45:17;7.22;;;2.22;;
34019;SDS011;20895;51.034;3.742;2023-12-29T00:47:42;6.03;;;5.43;;
34019;SDS011;20895;51.034;3.742;2023-12-29T00:50:08;10.10;;;2.60;;
34019;SDS011;20895;51.034;3.742;2023-12-29T00:52:33;14.20;;;4.07;;
34019;SDS011;20895;51.034;3.742;2023-12-29T00:54:58;10.23;;;2.72;;
34019;SDS011;20895;51.034;3.742;2023-12-29T00:57:24;7.95;;;2.53;;
34019;SDS011;20895;51.034;3.742;2023-12-29T00:59:49;11.52;;;5.68;;
34019;SDS011;20895;51.034;3.742;2023-12-29T01:02:14;4.93;;;2.08;;
34019;SDS011;20895;51.034;3.742;2023-12-29T01:04:39;6.80;;;2.75;;
34019;SDS011;20895;51.034;3.742;2023-12-29T01:07:05;9.38;;;2.50;;
34019;SDS011;20895;51.034;3.742;2023-12-29T01:09:30;10.88;;;3.15;;
34019;SDS011;20895;51.034;3.742;2023-12-29T01:11:55;10.52;;;3.20;;
34019;SDS011;20895;51.034;3.742;2023-12-29T01:14:21;11.10;;;2.75;;
34019;SDS011;20895;51.034;3.742;2023-12-29T01:16:46;9.55;;;2.72;;
34019;SDS011;20895;51.034;3.742;2023-12-29T01:19:11;10.10;;;2.83;;
34019;SDS011;20895;51.034;3.742;2023-12-29T01:21:39;7.97;;;2.80;;
34019;SDS011;20895;51.034;3.742;2023-12-29T01:24:05;8.15;;;3.10;;
34019;SDS011;20895;51.034;3.742;2023-12-29T01:26:32;8.68;;;3.00;;
34019;SDS011;20895;51.034;3.742;2023-12-29T01:28:57;8.77;;;2.45;;
34019;SDS011;20895;51.034;3.742;2023-12-29T01:31:22;10.13;;;3.30;;
34019;SDS011;20895;51.034;3.742;2023-12-29T01:33:47;10.15;;;2.80;;
34019;SDS011;20895;51.034;3.742;2023-12-29T01:36:19;10.10;;;2.40;;
34019;SDS011;20895;51.034;3.742;2023-12-29T01:38:44;17.90;;;3.10;;
34019;SDS011;20895;51.034;3.742;2023-12-29T01:41:09;7.63;;;2.92;;
34019;SDS011;20895;51.034;3.742;2023-12-29T01:43:34;10.57;;;2.97;;
34019;SDS011;20895;51.034;3.742;2023-12-29T01:46:00;11.48;;;3.72;;
34019;SDS011;20895;51.034;3.742;2023-12-29T01:48:25;8.30;;;2.25;;
34019;SDS011;20895;51.034;3.742;2023-12-29T01:50:50;7.85;;;2.33;;
34019;SDS011;20895;51.034;3.742;2023-12-29T01:53:16;6.72;;;3.28;;
34019;SDS011;20895;51.034;3.742;2023-12-29T01:55:42;9.23;;;2.20;;
34019;SDS011;20895;51.034;3.742;2023-12-29T01:58:08;12.55;;;2.45;;
34019;SDS011;20895;51.034;3.742;2023-12-29T02:00:33;11.43;;;3.40;;
34019;SDS011;20895;51.034;3.742;2023-12-29T02:02:58;8.23;;;2.10;;
34019;SDS011;20895;51.034;3.742;2023-12-29T02:05:24;7.88;;;2.45;;
34019;SDS011;20895;51.034;3.742;2023-12-29T02:07:51;9.90;;;2.65;;
34019;SDS011;20895;51.034;3.742;2023-12-29T02:10:16;13.98;;;3.13;;
34019;SDS011;20895;51.034;3.742;2023-12-29T02:12:42;11.45;;;3.33;;
34019;SDS011;20895;51.034;3.742;2023-12-29T02:15:08;7.10;;;2.95;;
34019;SDS011;20895;51.034;3.742;2023-12-29T02:17:36;7.85;;;7.15;;
34019;SDS011;20895;51.034;3.742;2023-12-29T02:20:03;10.80;;;2.85;;
34019;SDS011;20895;51.034;3.742;2023-12-29T02:22:29;10.80;;;2.38;;
34019;SDS011;20895;51.034;3.742;2023-12-29T02:24:54;7.22;;;2.88;;
34019;SDS011;20895;51.034;3.742;2023-12-29T02:30:22;15.20;;;3.00;;
34019;SDS011;20895;51.034;3.742;2023-12-29T02:32:40;9.10;;;2.42;;
34019;SDS011;20895;51.034;3.742;2023-12-29T02:35:06;7.82;;;2.45;;
34019;SDS011;20895;51.034;3.742;2023-12-29T02:37:35;9.00;;;2.28;;
34019;SDS011;20895;51.034;3.742;2023-12-29T02:40:01;9.23;;;2.70;;
34019;SDS011;20895;51.034;3.742;2023-12-29T02:42:26;9.45;;;2.50;;
34019;SDS011;20895;51.034;3.742;2023-12-29T02:44:52;7.07;;;2.92;;
34019;SDS011;20895;51.034;3.742;2023-12-29T02:47:17;13.82;;;3.30;;
34019;SDS011;20895;51.034;3.742;2023-12-29T02:49:44;8.10;;;2.40;;
34019;SDS011;20895;51.034;3.742;2023-12-29T02:52:09;13.18;;;2.90;;
34019;SDS011;20895;51.034;3.742;2023-12-29T02:54:34;10.27;;;2.08;;
34019;SDS011;20895;51.034;3.742;2023-12-29T02:56:59;9.20;;;2.63;;
34019;SDS011;20895;51.034;3.742;2023-12-29T02:59:25;7.68;;;2.92;;
34019;SDS011;20895;51.034;3.742;2023-12-29T03:01:50;11.60;;;2.50;;
34019;SDS011;20895;51.034;3.742;2023-12-29T03:04:15;8.73;;;2.78;;
34019;SDS011;20895;51.034;3.742;2023-12-29T03:06:40;6.35;;;2.60;;
34019;SDS011;20895;51.034;3.742;2023-12-29T03:09:06;7.75;;;2.10;;
34019;SDS011;20895;51.034;3.742;2023-12-29T03:11:31;11.93;;;2.88;;
34019;SDS011;20895;51.034;3.742;2023-12-29T03:13:57;9.38;;;2.58;;
34019;SDS011;20895;51.034;3.742;2023-12-29T03:16:22;8.50;;;2.42;;
34019;SDS011;20895;51.034;3.742;2023-12-29T03:18:47;14.27;;;2.92;;
34019;SDS011;20895;51.034;3.742;2023-12-29T03:21:13;11.90;;;3.08;;
34019;SDS011;20895;51.034;3.742;2023-12-29T03:23:38;13.70;;;4.22;;
34019;SDS011;20895;51.034;3.742;2023-12-29T03:26:03;9.57;;;3.08;;
34019;SDS011;20895;51.034;3.742;2023-12-29T03:28:29;9.65;;;2.25;;
34019;SDS011;20895;51.034;3.742;2023-12-29T03:30:54;10.30;;;2.40;;
34019;SDS011;20895;51.034;3.742;2023-12-29T03:33:19;7.63;;;2.50;;
34019;SDS011;20895;51.034;3.742;2023-12-29T03:35:45;9.88;;;2.55;;
34019;SDS011;20895;51.034;3.742;2023-12-29T03:38:10;8.52;;;2.83;;
34019;SDS011;20895;51.034;3.742;2023-12-29T03:40:35;7.07;;;2.90;;
34019;SDS011;20895;51.034;3.742;2023-12-29T03:43:00;10.07;;;3.08;;
34019;SDS011;20895;51.034;3.742;2023-12-29T03:45:26;8.65;;;2.70;;
34019;SDS011;20895;51.034;3.742;2023-12-29T03:47:51;13.15;;;4.40;;
34019;SDS011;20895;51.034;3.742;2023-12-29T03:50:16;12.23;;;2.10;;
34019;SDS011;20895;51.034;3.742;2023-12-29T03:52:41;12.90;;;3.45;;
34019;SDS011;20895;51.034;3.742;2023-12-29T03:55:07;12.18;;;2.42;;
34019;SDS011;20895;51.034;3.742;2023-12-29T03:57:32;8.00;;;2.60;;
34019;SDS011;20895;51.034;3.742;2023-12-29T03:59:57;11.43;;;2.65;;
34019;SDS011;20895;51.034;3.742;2023-12-29T04:02:23;12.60;;;4.38;;
34019;SDS011;20895;51.034;3.742;2023-12-29T04:04:48;11.10;;;2.92;;
34019;SDS011;20895;51.034;3.742;2023-12-29T04:07:13;13.13;;;2.83;;
34019;SDS011;20895;51.034;3.742;2023-12-29T04:09:38;4.88;;;2.10;;
34019;SDS011;20895;51.034;3.742;2023-12-29T04:12:04;11.15;;;2.83;;
34019;SDS011;20895;51.034;3.742;2023-12-29T04:14:29;11.73;;;3.72;;
34019;SDS011;20895;51.034;3.742;2023-12-29T04:16:54;11.13;;;4.00;;
34019;SDS011;20895;51.034;3.742;2023-12-29T04:19:19;11.73;;;2.90;;
34019;SDS011;20895;51.034;3.742;2023-12-29T04:21:44;8.38;;;2.65;;
34019;SDS011;20895;51.034;3.742;2023-12-29T04:24:10;9.35;;;3.05;;
34019;SDS011;20895;51.034;3.742;2023-12-29T04:26:36;11.27;;;2.90;;
34019;SDS011;20895;51.034;3.742;2023-12-29T04:29:01;10.25;;;3.40;;
34019;SDS011;20895;51.034;3.742;2023-12-29T04:31:27;10.10;;;2.85;;
34019;SDS011;20895;51.034;3.742;2023-12-29T04:33:52;12.82;;;2.70;;
34019;SDS011;20895;51.034;3.742;2023-12-29T04:36:17;8.40;;;2.85;;
34019;SDS011;20895;51.034;3.742;2023-12-29T04:38:42;17.58;;;5.55;;
34019;SDS011;20895;51.034;3.742;2023-12-29T04:41:08;7.60;;;2.50;;
34019;SDS011;20895;51.034;3.742;2023-12-29T04:43:33;7.90;;;2.08;;
34019;SDS011;20895;51.034;3.742;2023-12-29T04:45:58;7.90;;;2.33;;
34019;SDS011;20895;51.034;3.742;2023-12-29T04:48:23;14.52;;;3.35;;
34019;SDS011;20895;51.034;3.742;2023-12-29T04:50:49;9.63;;;2.72;;
34019;SDS011;20895;51.034;3.742;2023-12-29T04:53:14;9.77;;;3.08;;
34019;SDS011;20895;51.034;3.742;2023-12-29T04:55:39;10.73;;;2.50;;
34019;SDS011;20895;51.034;3.742;2023-12-29T04:58:04;15.13;;;2.85;;
34019;SDS011;20895;51.034;3.742;2023-12-29T05:00:30;10.23;;;3.10;;
34019;SDS011;20895;51.034;3.742;2023-12-29T05:02:55;9.18;;;2.70;;
34019;SDS011;20895;51.034;3.742;2023-12-29T05:05:20;13.52;;;2.95;;
34019;SDS011;20895;51.034;3.742;2023-12-29T05:07:45;13.10;;;3.20;;
34019;SDS011;20895;51.034;3.742;2023-12-29T05:10:11;8.65;;;2.55;;
34019;SDS011;20895;51.034;3.742;2023-12-29T05:12:36;11.70;;;3.10;;
34019;SDS011;20895;51.034;3.742;2023-12-29T05:15:01;10.93;;;2.67;;
34019;SDS011;20895;51.034;3.742;2023-12-29T05:17:27;7.05;;;2.70;;
34019;SDS011;20895;51.034;3.742;2023-12-29T05:19:52;11.65;;;6.07;;
34019;SDS011;20895;51.034;3.742;2023-12-29T05:22:17;9.13;;;2.40;;
34019;SDS011;20895;51.034;3.742;2023-12-29T05:24:45;7.07;;;2.58;;
34019;SDS011;20895;51.034;3.742;2023-12-29T05:27:11;7.68;;;2.92;;
34019;SDS011;20895;51.034;3.742;2023-12-29T05:29:36;14.32;;;4.13;;
34019;SDS011;20895;51.034;3.742;2023-12-29T05:32:02;8.93;;;2.60;;
34019;SDS011;20895;51.034;3.742;2023-12-29T05:34:27;9.30;;;3.60;;
34019;SDS011;20895;51.034;3.742;2023-12-29T05:36:52;7.07;;;2.25;;
34019;SDS011;20895;51.034;3.742;2023-12-29T05:39:18;13.73;;;3.08;;
34019;SDS011;20895;51.034;3.742;2023-12-29T05:41:43;7.70;;;2.60;;
34019;SDS011;20895;51.034;3.742;2023-12-29T05:44:08;9.70;;;3.00;;
34019;SDS011;20895;51.034;3.742;2023-12-29T05:46:33;8.32;;;2.65;;
34019;SDS011;20895;51.034;3.742;2023-12-29T05:48:59;8.48;;;2.42;;
34019;SDS011;20895;51.034;3.742;2023-12-29T05:51:24;4.47;;;1.85;;
34019;SDS011;20895;51.034;3.742;2023-12-29T05:53:49;10.95;;;3.83;;
34019;SDS011;20895;51.034;3.742;2023-12-29T05:56:14;8.05;;;2.55;;
34019;SDS011;20895;51.034;3.742;2023-12-29T05:58:40;11.98;;;3.10;;
34019;SDS011;20895;51.034;3.742;2023-12-29T06:01:06;7.80;;;2.90;;
34019;SDS011;20895;51.034;3.742;2023-12-29T06:03:31;11.13;;;2.88;;
34019;SDS011;20895;51.034;3.742;2023-12-29T06:05:57;8.40;;;2.67;;
34019;SDS011;20895;51.034;3.742;2023-12-29T06:08:22;11.07;;;4.18;;
34019;SDS011;20895;51.034;3.742;2023-12-29T06:10:47;7.70;;;2.35;;
34019;SDS011;20895;51.034;3.742;2023-12-29T06:13:12;10.93;;;9.88;;
34019;SDS011;20895;51.034;3.742;2023-12-29T06:15:38;11.23;;;2.53;;
34019;SDS011;20895;51.034;3.742;2023-12-29T06:18:03;10.35;;;2.70;;
34019;SDS011;20895;51.034;3.742;2023-12-29T06:20:29;8.68;;;2.88;;
34019;SDS011;20895;51.034;3.742;2023-12-29T06:22:55;10.63;;;2.80;;
34019;SDS011;20895;51.034;3.742;2023-12-29T06:25:20;10.50;;;2.50;;
34019;SDS011;20895;51.034;3.742;2023-12-29T06:27:46;6.70;;;3.10;;
34019;SDS011;20895;51.034;3.742;2023-12-29T06:30:11;8.35;;;2.80;;
34019;SDS011;20895;51.034;3.742;2023-12-29T06:32:36;11.18;;;3.08;;
34019;SDS011;20895;51.034;3.742;2023-12-29T06:35:02;6.00;;;3.35;;
34019;SDS011;20895;51.034;3.742;2023-12-29T06:37:28;9.70;;;2.45;;
34019;SDS011;20895;51.034;3.742;2023-12-29T06:39:53;7.60;;;2.78;;
34019;SDS011;20895;51.034;3.742;2023-12-29T06:42:21;8.73;;;2.33;;
34019;SDS011;20895;51.034;3.742;2023-12-29T06:44:47;7.13;;;2.47;;
34019;SDS011;20895;51.034;3.742;2023-12-29T06:47:13;5.43;;;2.03;;
34019;SDS011;20895;51.034;3.742;2023-12-29T06:49:38;7.30;;;2.50;;
34019;SDS011;20895;51.034;3.742;2023-12-29T06:52:04;9.98;;;2.58;;
34019;SDS011;20895;51.034;3.742;2023-12-29T06:54:29;11.00;;;2.65;;
34019;SDS011;20895;51.034;3.742;2023-12-29T06:56:54;6.95;;;2.42;;
34019;SDS011;20895;51.034;3.742;2023-12-29T06:59:20;6.50;;;5.20;;
34019;SDS011;20895;51.034;3.742;2023-12-29T07:01:46;8.60;;;3.67;;
34019;SDS011;20895;51.034;3.742;2023-12-29T07:04:11;4.88;;;1.77;;
34019;SDS011;20895;51.034;3.742;2023-12-29T07:06:37;6.88;;;2.33;;
34019;SDS011;20895;51.034;3.742;2023-12-29T07:09:02;6.35;;;2.88;;
34019;SDS011;20895;51.034;3.742;2023-12-29T07:11:28;5.28;;;2.70;;
34019;SDS011;20895;51.034;3.742;2023-12-29T07:13:53;5.30;;;2.53;;
34019;SDS011;20895;51.034;3.742;2023-12-29T07:16:18;2.28;;;1.55;;
34019;SDS011;20895;51.034;3.742;2023-12-29T07:18:45;3.58;;;1.60;;
34019;SDS011;20895;51.034;3.742;2023-12-29T07:21:11;4.28;;;2.03;;
34019;SDS011;20895;51.034;3.742;2023-12-29T07:23:37;4.78;;;1.65;;
34019;SDS011;20895;51.034;3.742;2023-12-29T07:26:02;4.78;;;1.40;;
34019;SDS011;20895;51.034;3.742;2023-12-29T07:28:27;2.88;;;1.38;;
34019;SDS011;20895;51.034;3.742;2023-12-29T07:30:53;3.53;;;1.35;;
34019;SDS011;20895;51.034;3.742;2023-12-29T07:33:18;2.75;;;1.25;;
34019;SDS011;20895;51.034;3.742;2023-12-29T07:35:43;4.05;;;2.00;;
34019;SDS011;20895;51.034;3.742;2023-12-29T07:38:09;4.45;;;1.73;;
34019;SDS011;20895;51.034;3.742;2023-12-29T07:40:34;2.47;;;2.08;;
34019;SDS011;20895;51.034;3.742;2023-12-29T07:43:00;1.85;;;1.27;;
34019;SDS011;20895;51.034;3.742;2023-12-29T07:45:25;2.80;;;1.10;;
34019;SDS011;20895;51.034;3.742;2023-12-29T07:47:50;1.85;;;1.70;;
34019;SDS011;20895;51.034;3.742;2023-12-29T07:50:15;2.80;;;1.20;;
34019;SDS011;20895;51.034;3.742;2023-12-29T07:52:42;7.75;;;7.20;;
34019;SDS011;20895;51.034;3.742;2023-12-29T07:55:07;2.70;;;1.80;;
34019;SDS011;20895;51.034;3.742;2023-12-29T07:57:32;3.78;;;1.17;;
34019;SDS011;20895;51.034;3.742;2023-12-29T07:59:57;2.13;;;1.15;;
34019;SDS011;20895;51.034;3.742;2023-12-29T08:02:23;5.00;;;1.52;;
34019;SDS011;20895;51.034;3.742;2023-12-29T08:04:48;2.92;;;1.48;;
34019;SDS011;20895;51.034;3.742;2023-12-29T08:07:13;2.08;;;1.23;;
34019;SDS011;20895;51.034;3.742;2023-12-29T08:09:39;3.42;;;1.33;;
34019;SDS011;20895;51.034;3.742;2023-12-29T08:12:04;2.80;;;1.38;;
34019;SDS011;20895;51.034;3.742;2023-12-29T08:14:30;1.65;;;1.33;;
34019;SDS011;20895;51.034;3.742;2023-12-29T08:16:55;2.67;;;1.77;;
34019;SDS011;20895;51.034;3.742;2023-12-29T08:19:22;2.97;;;1.83;;
34019;SDS011;20895;51.034;3.742;2023-12-29T08:21:47;1.60;;;1.50;;
34019;SDS011;20895;51.034;3.742;2023-12-29T08:24:13;1.27;;;1.17;;
34019;SDS011;20895;51.034;3.742;2023-12-29T08:26:44;3.17;;;1.50;;
34019;SDS011;20895;51.034;3.742;2023-12-29T08:29:10;3.73;;;1.67;;
34019;SDS011;20895;51.034;3.742;2023-12-29T08:31:36;3.35;;;2.33;;
34019;SDS011;20895;51.034;3.742;2023-12-29T08:34:01;3.45;;;1.80;;
34019;SDS011;20895;51.034;3.742;2023-12-29T08:36:26;3.80;;;2.00;;
34019;SDS011;20895;51.034;3.742;2023-12-29T08:38:52;5.68;;;2.05;;
34019;SDS011;20895;51.034;3.742;2023-12-29T08:41:18;3.38;;;2.10;;
34019;SDS011;20895;51.034;3.742;2023-12-29T08:43:43;3.65;;;2.13;;
34019;SDS011;20895;51.034;3.742;2023-12-29T08:46:09;4.05;;;2.10;;
34019;SDS011;20895;51.034;3.742;2023-12-29T08:48:34;8.10;;;2.83;;
34019;SDS011;20895;51.034;3.742;2023-12-29T08:50:59;5.45;;;2.38;;
34019;SDS011;20895;51.034;3.742;2023-12-29T08:53:24;4.07;;;2.25;;
34019;SDS011;20895;51.034;3.742;2023-12-29T08:55:50;6.47;;;1.98;;
34019;SDS011;20895;51.034;3.742;2023-12-29T08:58:15;9.18;;;2.88;;
34019;SDS011;20895;51.034;3.742;2023-12-29T09:00:40;3.30;;;1.83;;
34019;SDS011;20895;51.034;3.742;2023-12-29T09:03:06;5.22;;;2.75;;
34019;SDS011;20895;51.034;3.742;2023-12-29T09:05:31;7.20;;;3.38;;
34019;SDS011;20895;51.034;3.742;2023-12-29T09:07:56;5.50;;;1.80;;
34019;SDS011;20895;51.034;3.742;2023-12-29T09:10:21;5.90;;;2.28;;
34019;SDS011;20895;51.034;3.742;2023-12-29T09:12:47;3.33;;;1.77;;
34019;SDS011;20895;51.034;3.742;2023-12-29T09:15:13;1.88;;;1.17;;
34019;SDS011;20895;51.034;3.742;2023-12-29T09:17:38;2.78;;;1.88;;
34019;SDS011;20895;51.034;3.742;2023-12-29T09:20:04;3.70;;;2.08;;
34019;SDS011;20895;51.034;3.742;2023-12-29T09:22:29;3.83;;;1.50;;
34019;SDS011;20895;51.034;3.742;2023-12-29T09:24:54;2.55;;;1.50;;
34019;SDS011;20895;51.034;3.742;2023-12-29T09:27:20;5.32;;;2.13;;
34019;SDS011;20895;51.034;3.742;2023-12-29T09:29:45;4.18;;;1.83;;
34019;SDS011;20895;51.034;3.742;2023-12-29T09:32:11;3.47;;;1.50;;
34019;SDS011;20895;51.034;3.742;2023-12-29T09:34:36;3.35;;;1.38;;
34019;SDS011;20895;51.034;3.742;2023-12-29T09:37:01;4.80;;;1.20;;
34019;SDS011;20895;51.034;3.742;2023-12-29T09:39:26;5.75;;;1.58;;
34019;SDS011;20895;51.034;3.742;2023-12-29T09:41:52;3.10;;;1.02;;
34019;SDS011;20895;51.034;3.742;2023-12-29T09:44:19;3.20;;;1.65;;
34019;SDS011;20895;51.034;3.742;2023-12-29T09:46:45;2.80;;;1.63;;
34019;SDS011;20895;51.034;3.742;2023-12-29T09:49:12;2.85;;;1.23;;
34019;SDS011;20895;51.034;3.742;2023-12-29T09:51:39;4.95;;;1.92;;
34019;SDS011;20895;51.034;3.742;2023-12-29T09:54:05;4.88;;;1.75;;
34019;SDS011;20895;51.034;3.742;2023-12-29T09:56:31;2.00;;;1.10;;
34019;SDS011;20895;51.034;3.742;2023-12-29T09:58:56;1.80;;;1.17;;
34019;SDS011;20895;51.034;3.742;2023-12-29T10:01:23;1.27;;;1.17;;
34019;SDS011;20895;51.034;3.742;2023-12-29T10:03:48;1.33;;;1.23;;
34019;SDS011;20895;51.034;3.742;2023-12-29T10:06:15;1.60;;;1.30;;
34019;SDS011;20895;51.034;3.742;2023-12-29T10:08:43;1.85;;;1.10;;
34019;SDS011;20895;51.034;3.742;2023-12-29T10:11:10;2.10;;;1.20;;
34019;SDS011;20895;51.034;3.742;2023-12-29T10:13:35;5.70;;;1.38;;
34019;SDS011;20895;51.034;3.742;2023-12-29T10:18:32;2.92;;;1.38;;
34019;SDS011;20895;51.034;3.742;2023-12-29T10:25:57;5.20;;;1.90;;
34019;SDS011;20895;51.034;3.742;2023-12-29T10:28:22;5.00;;;2.05;;
34019;SDS011;20895;51.034;3.742;2023-12-29T10:30:49;7.57;;;2.90;;
34019;SDS011;20895;51.034;3.742;2023-12-29T10:33:20;7.18;;;2.75;;
34019;SDS011;20895;51.034;3.742;2023-12-29T10:35:56;5.63;;;2.42;;
34019;SDS011;20895;51.034;3.742;2023-12-29T10:38:22;6.20;;;2.57;;
34019;SDS011;20895;51.034;3.742;2023-12-29T10:40:47;7.75;;;2.72;;
34019;SDS011;20895;51.034;3.742;2023-12-29T10:43:12;4.88;;;4.32;;
34019;SDS011;20895;51.034;3.742;2023-12-29T10:45:38;7.57;;;3.10;;
34019;SDS011;20895;51.034;3.742;2023-12-29T10:48:03;9.43;;;3.30;;
34019;SDS011;20895;51.034;3.742;2023-12-29T10:50:28;6.57;;;3.13;;
34019;SDS011;20895;51.034;3.742;2023-12-29T10:55:37;4.40;;;2.28;;
34019;SDS011;20895;51.034;3.742;2023-12-29T10:58:03;5.57;;;3.03;;
34019;SDS011;20895;51.034;3.742;2023-12-29T11:00:31;6.30;;;2.70;;
34019;SDS011;20895;51.034;3.742;2023-12-29T11:02:57;4.88;;;2.50;;
34019;SDS011;20895;51.034;3.742;2023-12-29T11:05:26;6.28;;;3.22;;
34019;SDS011;20895;51.034;3.742;2023-12-29T11:07:52;10.40;;;2.95;;
34019;SDS011;20895;51.034;3.742;2023-12-29T11:10:19;7.22;;;2.97;;
34019;SDS011;20895;51.034;3.742;2023-12-29T11:12:45;7.90;;;3.65;;
34019;SDS011;20895;51.034;3.742;2023-12-29T11:15:10;5.97;;;3.28;;
34019;SDS011;20895;51.034;3.742;2023-12-29T11:17:38;12.85;;;4.60;;
34019;SDS011;20895;51.034;3.742;2023-12-29T11:20:03;6.43;;;3.05;;
34019;SDS011;20895;51.034;3.742;2023-12-29T11:22:29;5.85;;;3.70;;
34019;SDS011;20895;51.034;3.742;2023-12-29T11:24:55;7.50;;;2.90;;
34019;SDS011;20895;51.034;3.742;2023-12-29T11:27:23;10.27;;;3.35;;
34019;SDS011;20895;51.034;3.742;2023-12-29T11:29:50;7.82;;;3.58;;
34019;SDS011;20895;51.034;3.742;2023-12-29T11:32:18;7.90;;;3.15;;
34019;SDS011;20895;51.034;3.742;2023-12-29T11:34:56;5.35;;;2.78;;
34019;SDS011;20895;51.034;3.742;2023-12-29T11:40:20;7.35;;;3.30;;
34019;SDS011;20895;51.034;3.742;2023-12-29T11:42:44;4.35;;;2.10;;
34019;SDS011;20895;51.034;3.742;2023-12-29T11:45:28;5.15;;;3.13;;
34019;SDS011;20895;51.034;3.742;2023-12-29T11:47:54;4.97;;;2.88;;
34019;SDS011;20895;51.034;3.742;2023-12-29T11:50:27;5.22;;;3.13;;
34019;SDS011;20895;51.034;3.742;2023-12-29T11:52:52;8.50;;;3.83;;
34019;SDS011;20895;51.034;3.742;2023-12-29T11:55:18;8.10;;;3.40;;
34019;SDS011;20895;51.034;3.742;2023-12-29T11:57:44;5.00;;;2.70;;
34019;SDS011;20895;51.034;3.742;2023-12-29T12:00:10;6.93;;;2.95;;
34019;SDS011;20895;51.034;3.742;2023-12-29T12:02:35;7.78;;;2.97;;
34019;SDS011;20895;51.034;3.742;2023-12-29T12:05:01;7.00;;;2.25;;
34019;SDS011;20895;51.034;3.742;2023-12-29T12:09:52;6.78;;;3.65;;
34019;SDS011;20895;51.034;3.742;2023-12-29T12:12:38;4.80;;;2.20;;
34019;SDS011;20895;51.034;3.742;2023-12-29T12:15:04;6.22;;;3.22;;
34019;SDS011;20895;51.034;3.742;2023-12-29T12:17:50;6.13;;;2.65;;
34019;SDS011;20895;51.034;3.742;2023-12-29T12:20:15;6.70;;;2.15;;
34019;SDS011;20895;51.034;3.742;2023-12-29T12:22:41;4.18;;;2.08;;
34019;SDS011;20895;51.034;3.742;2023-12-29T12:25:08;3.63;;;2.25;;
34019;SDS011;20895;51.034;3.742;2023-12-29T12:27:37;4.93;;;2.28;;
34019;SDS011;20895;51.034;3.742;2023-12-29T12:30:02;3.33;;;2.22;;
34019;SDS011;20895;51.034;3.742;2023-12-29T12:32:28;7.03;;;2.30;;
34019;SDS011;20895;51.034;3.742;2023-12-29T12:34:54;7.15;;;3.17;;
34019;SDS011;20895;51.034;3.742;2023-12-29T12:37:23;3.13;;;2.13;;
34019;SDS011;20895;51.034;3.742;2023-12-29T12:39:48;2.67;;;2.38;;
34019;SDS011;20895;51.034;3.742;2023-12-29T12:42:15;1.77;;;1.67;;
34019;SDS011;20895;51.034;3.742;2023-12-29T12:44:41;4.75;;;4.55;;
34019;SDS011;20895;51.034;3.742;2023-12-29T12:47:07;3.28;;;2.47;;
34019;SDS011;20895;51.034;3.742;2023-12-29T12:49:34;1.88;;;1.77;;
34019;SDS011;20895;51.034;3.742;2023-12-29T12:51:59;2.08;;;1.88;;
34019;SDS011;20895;51.034;3.742;2023-12-29T12:54:25;3.70;;;1.90;;
34019;SDS011;20895;51.034;3.742;2023-12-29T12:56:50;4.22;;;2.20;;
34019;SDS011;20895;51.034;3.742;2023-12-29T12:59:16;2.08;;;1.30;;
34019;SDS011;20895;51.034;3.742;2023-12-29T13:01:41;2.10;;;1.67;;
34019;SDS011;20895;51.034;3.742;2023-12-29T13:04:07;2.40;;;2.20;;
34019;SDS011;20895;51.034;3.742;2023-12-29T13:06:33;5.82;;;2.15;;
34019;SDS011;20895;51.034;3.742;2023-12-29T13:08:59;3.58;;;2.25;;
34019;SDS011;20895;51.034;3.742;2023-12-29T13:11:24;4.05;;;2.13;;
34019;SDS011;20895;51.034;3.742;2023-12-29T13:13:52;6.05;;;2.30;;
34019;SDS011;20895;51.034;3.742;2023-12-29T13:16:32;6.40;;;2.15;;
34019;SDS011;20895;51.034;3.742;2023-12-29T13:19:14;4.18;;;2.45;;
34019;SDS011;20895;51.034;3.742;2023-12-29T13:21:39;5.40;;;2.30;;
34019;SDS011;20895;51.034;3.742;2023-12-29T13:24:04;3.38;;;2.10;;
34019;SDS011;20895;51.034;3.742;2023-12-29T13:26:30;5.50;;;2.60;;
34019;SDS011;20895;51.034;3.742;2023-12-29T13:28:55;4.43;;;2.90;;
34019;SDS011;20895;51.034;3.742;2023-12-29T13:31:20;6.68;;;2.78;;
34019;SDS011;20895;51.034;3.742;2023-12-29T13:33:57;3.28;;;2.17;;
34019;SDS011;20895;51.034;3.742;2023-12-29T13:38:51;5.20;;;2.92;;
34019;SDS011;20895;51.034;3.742;2023-12-29T13:41:18;3.85;;;2.58;;
34019;SDS011;20895;51.034;3.742;2023-12-29T13:43:44;3.95;;;2.42;;
34019;SDS011;20895;51.034;3.742;2023-12-29T13:46:11;7.20;;;3.00;;
34019;SDS011;20895;51.034;3.742;2023-12-29T13:48:36;5.13;;;2.15;;
34019;SDS011;20895;51.034;3.742;2023-12-29T13:51:02;2.22;;;2.13;;
34019;SDS011;20895;51.034;3.742;2023-12-29T13:53:27;4.70;;;2.50;;
34019;SDS011;20895;51.034;3.742;2023-12-29T13:55:54;3.78;;;2.50;;
34019;SDS011;20895;51.034;3.742;2023-12-29T13:58:30;3.13;;;2.20;;
34019;SDS011;20895;51.034;3.742;2023-12-29T14:00:56;4.82;;;2.42;;
34019;SDS011;20895;51.034;3.742;2023-12-29T14:03:23;4.00;;;2.20;;
34019;SDS011;20895;51.034;3.742;2023-12-29T14:05:55;4.03;;;2.10;;
34019;SDS011;20895;51.034;3.742;2023-12-29T14:08:25;4.18;;;2.30;;
34019;SDS011;20895;51.034;3.742;2023-12-29T14:10:51;4.85;;;2.17;;
34019;SDS011;20895;51.034;3.742;2023-12-29T14:13:16;3.00;;;1.90;;
34019;SDS011;20895;51.034;3.742;2023-12-29T14:15:42;3.88;;;2.08;;
34019;SDS011;20895;51.034;3.742;2023-12-29T14:18:53;6.45;;;2.22;;
34019;SDS011;20895;51.034;3.742;2023-12-29T14:20:53;1.90;;;1.65;;
34019;SDS011;20895;51.034;3.742;2023-12-29T14:23:18;3.72;;;1.92;;
34019;SDS011;20895;51.034;3.742;2023-12-29T14:25:44;4.80;;;1.77;;
34019;SDS011;20895;51.034;3.742;2023-12-29T14:28:18;6.90;;;2.10;;
34019;SDS011;20895;51.034;3.742;2023-12-29T14:30:44;4.55;;;2.10;;
34019;SDS011;20895;51.034;3.742;2023-12-29T14:33:09;5.70;;;4.10;;
34019;SDS011;20895;51.034;3.742;2023-12-29T14:35:35;2.80;;;1.90;;
34019;SDS011;20895;51.034;3.742;2023-12-29T14:38:00;2.47;;;1.80;;
34019;SDS011;20895;51.034;3.742;2023-12-29T14:40:25;6.10;;;2.47;;
34019;SDS011;20895;51.034;3.742;2023-12-29T14:42:51;4.40;;;2.72;;
34019;SDS011;20895;51.034;3.742;2023-12-29T14:45:16;4.28;;;2.10;;
34019;SDS011;20895;51.034;3.742;2023-12-29T14:47:41;9.00;;;2.75;;
34019;SDS011;20895;51.034;3.742;2023-12-29T14:50:06;6.10;;;2.65;;
34019;SDS011;20895;51.034;3.742;2023-12-29T14:52:32;4.50;;;2.05;;
34019;SDS011;20895;51.034;3.742;2023-12-29T14:54:57;4.03;;;3.58;;
34019;SDS011;20895;51.034;3.742;2023-12-29T14:57:22;7.82;;;3.10;;
34019;SDS011;20895;51.034;3.742;2023-12-29T14:59:48;4.85;;;2.50;;